Hughesville, Missouri
Current Conditions -  °F | °C
As of 5:53 AM on Friday 28 Nov 2014 (Local Time) from KDMO Reporting Station
Clear Clear  
Wind Chill: 23°   Ceiling: Unl
Heat Index: 33°   Visibility: 10mi
Dew Point: 25°   Wind: 15mph
Humidity: 72%   Direction: 180°S
Pressure: 30.11"   Gusts: NA
Location:  38.84°N, 93.3°W
Report Text: KDMO 281153Z AUTO 18013KT 10SM CLR 01/M04 A3011 RMK AO2 PRESFR SLP204 T00061039 10006 21017 58037
Loading
Personal Weather Stations






























Interactive Weather Map New forecast layout! Learn more

10-Day Weather Forecast

Advertisements
Track Severe Weather on mobile